CYBR

Brandon Municipal  Airport

Brandon, Manitoba, Canada

CYBR 231000Z 00000KT 15SM OVC010 M07/M10 A2984 RMK SC8 PRESFR SLP137

Observed Flight Rules
Nov-23 @ 10:00 UTC (57 minutes ago)
 
Marginal Visual Flight Rules
Wind Visibility Clouds
Calm 15 miles
  • Overcast at 1,000' AGL
Temperatures Readings
Current -7°C / 19°F
Dewpoint -10°C / 14°F
Humidity 79%
Altimeter 29.84" Hg
Pressure 1013.7 hPa
Elevation 409
Observed Flight Rules
Nov-23 @ 10:00 UTC
(57 minutes ago)
 
MVFR
Wind Visibility
Calm 15 miles
Clouds
  • Overcast at 1,000' AGL
Temperature Dewpoint
-7°C / 19°F -10°C / 14°F
Humidity Altimeter Pressure
79% 29.84" Hg 1013.7 hPa